Time;durP1;ratioP1;P1;durP2;ratioP2;P2;SDS_P1;SDS_P2;PMS_P1;PMS_P2;Temp;Humidity;BMP_temperature;BMP_pressure;BME280_temperature;BME280_humidity;BME280_pressure;Samples;Min_cycle;Max_cycle;Signal;HPM_P1;HPM_P2
2023/10/16 00:09:14;;;;;;;4.03;2.17;;;;;;;4.98;70.60;101278.63;21053971;28;20591;-83
2023/10/16 00:19:17;;;;;;;5.27;2.33;;;;;;;5.08;69.52;101284.28;21079827;28;20277;-81
2023/10/16 00:29:23;;;;;;;4.03;2.20;;;;;;;4.96;69.85;101280.84;21073751;28;20465;-80
2023/10/16 00:39:28;;;;;;;5.93;2.30;;;;;;;5.45;68.44;101267.50;21054376;28;20496;-80
2023/10/16 00:49:30;;;;;;;5.67;2.23;;;;;;;5.43;67.81;101254.91;21070457;28;20218;-89
2023/10/16 00:59:35;;;;;;;5.07;2.50;;;;;;;5.36;67.92;101262.66;21086466;28;20265;-80
2023/10/16 01:09:39;;;;;;;3.60;2.33;;;;;;;5.44;67.22;101254.66;21084356;28;20203;-80
2023/10/16 01:19:44;;;;;;;5.40;2.30;;;;;;;5.06;67.89;101253.03;21084243;28;20222;-79
2023/10/16 01:29:47;;;;;;;3.50;2.50;;;;;;;5.23;67.91;101252.00;21081200;28;20290;-82
2023/10/16 01:39:49;;;;;;;3.13;1.93;;;;;;;4.97;69.21;101259.38;21090874;28;20210;-80
2023/10/16 01:49:54;;;;;;;4.53;2.73;;;;;;;5.08;68.34;101253.59;21078120;28;20215;-80
2023/10/16 01:59:55;;;;;;;4.73;2.80;;;;;;;4.95;68.17;101242.06;21077091;28;20232;-79
2023/10/16 02:09:59;;;;;;;7.77;3.40;;;;;;;4.87;69.28;101235.06;21087168;28;20202;-79
2023/10/16 02:20:01;;;;;;;6.10;3.03;;;;;;;4.68;69.75;101233.78;21070835;28;20222;-79
2023/10/16 02:30:15;;;;;;;5.40;3.10;;;;;;;4.72;70.78;101223.75;21085369;28;20206;-79
2023/10/16 02:40:17;;;;;;;4.47;3.27;;;;;;;4.68;69.30;101217.06;21063423;28;20218;-82
2023/10/16 02:50:20;;;;;;;4.10;2.77;;;;;;;4.38;71.27;101215.72;21075006;28;20210;-79
2023/10/16 03:00:25;;;;;;;5.67;3.20;;;;;;;4.84;69.34;101224.44;21069200;28;20758;-79
2023/10/16 03:10:30;;;;;;;6.77;3.73;;;;;;;4.88;68.67;101244.25;21066900;28;20206;-78
2023/10/16 03:20:36;;;;;;;6.87;3.83;;;;;;;4.57;70.22;101237.56;21073657;28;20229;-78
2023/10/16 03:30:42;;;;;;;7.63;4.50;;;;;;;4.61;69.51;101244.31;21070129;28;20584;-82
2023/10/16 03:40:44;;;;;;;10.07;4.20;;;;;;;4.54;70.02;101232.56;21057318;28;20626;-85
2023/10/16 03:50:47;;;;;;;6.77;3.60;;;;;;;4.84;68.63;101235.59;21052677;28;20269;-87
2023/10/16 04:00:52;;;;;;;8.53;4.50;;;;;;;4.62;69.99;101229.25;21056782;28;20600;-88
2023/10/16 04:10:56;;;;;;;8.60;4.37;;;;;;;4.97;68.60;101226.75;21060481;28;20194;-87
2023/10/16 04:31:44;;;;;;;8.93;4.60;;;;;;;4.69;68.88;101218.72;21016928;28;20236;-81
2023/10/16 04:52:14;;;;;;;5.70;3.93;;;;;;;4.90;68.02;101195.47;21064996;28;20249;-81
2023/10/16 05:02:33;;;;;;;9.40;4.70;;;;;;;5.12;67.04;101187.78;21058716;28;20878;-81
2023/10/16 06:14:37;;;;;;;8.37;5.33;;;;;;;5.09;67.15;101196.69;21054496;28;20507;-80
2023/10/16 06:24:44;;;;;;;8.67;5.70;;;;;;;5.07;67.44;101201.69;21083775;28;20222;-79
2023/10/16 06:34:47;;;;;;;9.50;5.70;;;;;;;5.01;67.80;101202.78;21089404;28;20194;-79
2023/10/16 06:44:53;;;;;;;11.07;5.93;;;;;;;4.97;68.14;101207.22;21056811;28;20413;-79
2023/10/16 06:54:56;;;;;;;10.33;5.77;;;;;;;4.96;68.78;101208.31;21070464;28;20501;-79
2023/10/16 07:05:05;;;;;;;13.03;6.03;;;;;;;4.69;69.13;101207.56;21075325;28;20221;-81
2023/10/16 07:15:09;;;;;;;12.90;6.40;;;;;;;5.22;67.33;101216.84;21086713;28;20198;-81
2023/10/16 07:25:23;;;;;;;11.63;6.10;;;;;;;5.46;66.30;101218.09;21058116;28;20225;-80
2023/10/16 07:35:27;;;;;;;12.33;7.03;;;;;;;5.53;66.32;101227.03;21049272;28;20202;-79
2023/10/16 07:45:32;;;;;;;9.97;5.20;;;;;;;6.00;65.61;101220.44;21037154;28;20376;-79
2023/10/16 07:55:40;;;;;;;7.77;5.03;;;;;;;5.86;64.54;101217.34;21073250;28;20237;-79
2023/10/16 08:05:47;;;;;;;10.10;5.17;;;;;;;6.36;63.39;101213.84;21030334;28;20227;-79
2023/10/16 08:15:51;;;;;;;8.07;4.20;;;;;;;6.46;63.42;101216.63;21079638;28;20202;-79
2023/10/16 08:25:58;;;;;;;10.03;4.53;;;;;;;6.59;62.72;101227.25;21041615;28;20250;-80
2023/10/16 08:36:04;;;;;;;7.20;4.67;;;;;;;7.00;62.93;101224.41;21041429;28;20221;-79
2023/10/16 08:46:18;;;;;;;13.50;5.90;;;;;;;6.78;62.99;101229.44;21042633;28;20215;-79
2023/10/16 08:56:23;;;;;;;10.37;3.80;;;;;;;7.34;60.28;101229.31;21036998;28;20230;-79
2023/10/16 09:06:25;;;;;;;8.67;4.50;;;;;;;7.19;61.61;101225.44;21045453;28;20234;-78
2023/10/16 09:16:31;;;;;;;7.83;4.60;;;;;;;7.15;62.99;101217.94;21064494;28;20669;-79
2023/10/16 09:26:33;;;;;;;9.23;4.27;;;;;;;7.60;60.92;101214.13;21077213;28;20218;-79
2023/10/16 09:36:37;;;;;;;8.47;4.20;;;;;;;7.53;60.13;101213.63;21070821;28;20606;-78
2023/10/16 09:46:52;;;;;;;8.67;3.87;;;;;;;7.84;61.23;101217.91;21061767;28;20309;-79
2023/10/16 09:56:59;;;;;;;8.03;4.43;;;;;;;8.68;58.55;101207.50;21059880;28;20230;-86
2023/10/16 10:07:01;;;;;;;6.10;3.90;;;;;;;8.38;59.45;101202.97;21052394;28;20222;-82
2023/10/16 10:17:04;;;;;;;8.67;4.53;;;;;;;8.56;59.28;101207.91;21069288;28;20199;-84
2023/10/16 10:27:11;;;;;;;7.43;4.13;;;;;;;8.16;60.65;101205.38;21058050;28;20229;-81
2023/10/16 10:37:51;;;;;;;9.57;5.57;;;;;;;8.62;60.38;101200.25;21061722;28;20287;-80
2023/10/16 10:47:55;;;;;;;9.60;4.57;;;;;;;8.56;60.60;101196.69;21058584;28;20219;-79
2023/10/16 10:58:00;;;;;;;3.50;2.10;;;;;;;8.61;60.07;101179.78;21046094;28;20352;-83
2023/10/16 11:18:26;;;;;;;4.43;2.33;;;;;;;9.14;58.17;101143.28;21034564;28;20194;-85
2023/10/16 11:28:31;;;;;;;4.72;2.13;;;;;;;9.43;57.10;101135.59;21046689;28;20218;-79
2023/10/16 11:38:34;;;;;;;6.70;2.40;;;;;;;9.64;55.71;101129.72;21055117;28;20258;-80
2023/10/16 11:48:42;;;;;;;3.23;1.70;;;;;;;8.99;57.08;101129.41;21071322;28;20519;-80
2023/10/16 11:58:44;;;;;;;6.78;2.25;;;;;;;9.13;56.94;101119.13;21044288;28;20223;-80
2023/10/16 12:08:48;;;;;;;4.73;1.90;;;;;;;9.62;55.46;101115.09;21053348;28;20496;-81
2023/10/16 12:18:51;;;;;;;4.07;2.00;;;;;;;9.15;58.21;101116.03;21064232;28;20286;-79
2023/10/16 12:28:54;;;;;;;3.83;1.85;;;;;;;9.76;54.83;101104.78;21052681;28;20217;-80
2023/10/16 12:38:56;;;;;;;3.35;1.65;;;;;;;10.03;53.28;101098.47;21039583;28;20201;-80
2023/10/16 12:48:59;;;;;;;3.87;2.17;;;;;;;9.29;55.69;101086.91;21046059;28;20233;-81
2023/10/16 12:59:03;;;;;;;4.32;1.80;;;;;;;9.61;56.71;101076.91;21057492;28;20309;-79
2023/10/16 13:09:14;;;;;;;11.23;7.07;;;;;;;9.86;55.03;101078.53;21033651;28;20221;-80
2023/10/16 13:19:18;;;;;;;2.72;0.70;;;;;;;10.11;53.57;101078.09;21058949;28;20201;-79
2023/10/16 13:29:21;;;;;;;0.93;0.60;;;;;;;9.61;55.77;101076.91;21073693;28;20199;-80
2023/10/16 13:39:24;;;;;;;2.10;0.60;;;;;;;9.99;51.31;101072.97;21084596;28;20198;-81
2023/10/16 13:49:28;;;;;;;1.07;0.50;;;;;;;10.46;48.88;101068.16;21067203;28;20614;-86
2023/10/16 13:59:30;;;;;;;1.27;0.20;;;;;;;10.77;48.79;101058.03;21064183;28;20234;-80
2023/10/16 14:09:33;;;;;;;2.50;0.40;;;;;;;10.41;48.63;101043.75;21068595;28;20194;-81
2023/10/16 14:19:44;;;;;;;0.85;0.40;;;;;;;10.41;51.90;101045.75;21066972;28;20314;-81
2023/10/16 14:29:54;;;;;;;0.63;0.30;;;;;;;9.54;51.26;101039.94;21056640;28;20209;-81
2023/10/16 14:39:56;;;;;;;2.60;0.57;;;;;;;9.97;51.15;101038.69;21052087;28;20302;-80
2023/10/16 14:50:01;;;;;;;7.17;0.87;;;;;;;9.98;53.01;101022.66;21051083;28;20335;-89
2023/10/16 15:00:04;;;;;;;6.20;0.60;;;;;;;10.30;51.69;101014.16;21066788;28;20226;-81
2023/10/16 15:10:08;;;;;;;2.37;0.57;;;;;;;9.90;52.95;101021.34;21060621;28;20202;-81
2023/10/16 15:20:14;;;;;;;0.88;0.43;;;;;;;9.77;52.84;101008.09;21052542;28;20297;-81
2023/10/16 15:30:19;;;;;;;4.03;1.55;;;;;;;9.91;55.72;101017.41;21050024;28;20290;-82
2023/10/16 15:40:21;;;;;;;6.30;0.70;;;;;;;9.95;56.18;101012.84;21063643;28;20578;-82
2023/10/16 15:50:27;;;;;;;1.77;0.75;;;;;;;9.90;55.12;101003.66;21047394;28;20712;-81
2023/10/16 16:00:34;;;;;;;3.20;0.90;;;;;;;9.39;58.74;100999.69;21056622;28;20229;-81
2023/10/16 16:10:40;;;;;;;1.80;0.73;;;;;;;9.39;59.56;101004.47;21070197;28;20210;-80
2023/10/16 16:20:47;;;;;;;5.00;0.80;;;;;;;9.24;59.17;101013.97;21069482;28;20268;-82
2023/10/16 16:30:50;;;;;;;2.93;1.03;;;;;;;9.35;57.51;101015.50;21067405;28;20195;-81
2023/10/16 16:40:51;;;;;;;3.73;1.40;;;;;;;9.15;59.27;101015.78;21055759;28;20224;-82
2023/10/16 16:50:56;;;;;;;3.33;1.97;;;;;;;8.75;61.92;101010.72;21062017;28;20257;-82
2023/10/16 17:00:57;;;;;;;2.27;1.43;;;;;;;8.64;62.43;101021.25;21062813;28;20631;-82
2023/10/16 17:11:00;;;;;;;4.83;2.17;;;;;;;8.19;65.01;101031.00;21049255;28;20203;-80
2023/10/16 17:21:03;;;;;;;4.27;1.87;;;;;;;8.23;66.59;101046.91;21061259;28;20302;-79
2023/10/16 17:31:06;;;;;;;4.17;2.27;;;;;;;8.00;67.42;101051.34;21052749;28;20232;-80
2023/10/16 17:41:08;;;;;;;4.20;2.40;;;;;;;7.89;68.46;101041.34;21078136;28;20218;-80
2023/10/16 17:51:11;;;;;;;2.77;2.23;;;;;;;7.86;69.84;101039.13;21054188;28;20231;-81
2023/10/16 18:01:13;;;;;;;5.53;2.60;;;;;;;7.81;69.94;101041.97;21063590;28;20222;-80
2023/10/16 18:11:20;;;;;;;3.63;2.10;;;;;;;7.64;70.28;101041.56;21078835;28;20480;-81
2023/10/16 18:21:23;;;;;;;3.20;2.43;;;;;;;7.61;70.74;101030.94;21067328;28;20306;-82
2023/10/16 18:31:29;;;;;;;5.23;2.40;;;;;;;7.43;70.59;101029.66;21070231;28;20255;-83
2023/10/16 18:41:31;;;;;;;3.83;2.60;;;;;;;7.11;72.77;101030.13;21062170;28;20211;-82
2023/10/16 18:51:34;;;;;;;3.67;2.50;;;;;;;7.45;71.68;101032.16;21072829;28;20223;-82
2023/10/16 19:01:36;;;;;;;5.93;2.67;;;;;;;7.46;72.73;101045.06;21050912;28;20694;-81
2023/10/16 19:11:39;;;;;;;8.27;5.07;;;;;;;7.82;70.46;101052.03;21063672;28;20260;-82
2023/10/16 19:21:42;;;;;;;7.40;5.17;;;;;;;8.05;69.06;101041.22;21052713;28;20641;-87
2023/10/16 19:31:46;;;;;;;7.50;5.43;;;;;;;7.61;71.75;101030.94;21061162;28;20534;-81
2023/10/16 19:41:52;;;;;;;6.67;5.23;;;;;;;7.67;71.14;101017.75;21066474;28;20218;-81
2023/10/16 19:51:55;;;;;;;6.20;4.60;;;;;;;7.44;71.96;101036.09;21062809;28;20317;-81
2023/10/16 20:01:57;;;;;;;6.70;4.23;;;;;;;7.54;71.63;101053.66;21054813;28;20223;-82
2023/10/16 20:12:00;;;;;;;8.33;4.77;;;;;;;7.26;71.79;101058.03;21059943;28;20200;-82
2023/10/16 20:22:06;;;;;;;8.23;5.97;;;;;;;7.09;72.38;101057.56;21056213;28;20220;-89
2023/10/16 20:32:10;;;;;;;8.27;5.73;;;;;;;6.52;75.50;101066.47;21059761;28;20191;-81
2023/10/16 20:42:12;;;;;;;10.03;6.43;;;;;;;7.11;72.14;101048.88;21048355;28;20290;-81
2023/10/16 20:52:15;;;;;;;8.60;6.73;;;;;;;6.74;73.84;101033.41;21053691;28;20365;-82
2023/10/16 21:02:17;;;;;;;7.80;6.47;;;;;;;6.77;72.31;101035.59;21053314;28;20226;-83
2023/10/16 21:12:21;;;;;;;11.37;8.10;;;;;;;6.69;72.93;101030.63;21073813;28;20205;-83
2023/10/16 21:22:24;;;;;;;6.73;6.00;;;;;;;6.61;72.42;101030.38;21051067;28;20250;-83
2023/10/16 21:32:27;;;;;;;8.33;6.63;;;;;;;6.31;73.97;101034.94;21051748;28;20282;-82
2023/10/16 21:42:28;;;;;;;7.47;6.07;;;;;;;6.53;72.36;101043.81;21049435;28;20305;-84
2023/10/16 21:52:33;;;;;;;12.90;7.07;;;;;;;6.37;72.92;101039.38;21051597;28;20665;-82
2023/10/16 22:02:34;;;;;;;9.70;6.60;;;;;;;6.42;72.46;101041.31;21079932;28;20214;-81
2023/10/16 22:12:37;;;;;;;9.63;6.67;;;;;;;6.45;72.00;101049.16;21057353;28;20190;-89
2023/10/16 22:22:40;;;;;;;8.90;6.43;;;;;;;6.28;72.46;101052.25;21070490;28;20219;-90
2023/10/16 22:32:43;;;;;;;8.17;6.17;;;;;;;6.41;71.07;101039.66;21060362;28;20199;-89
2023/10/16 22:42:45;;;;;;;7.97;5.93;;;;;;;6.10;71.46;101055.63;21079276;28;20238;-81
2023/10/16 22:52:50;;;;;;;10.10;7.23;;;;;;;5.75;72.28;101043.34;21063568;28;20234;-80
2023/10/16 23:02:51;;;;;;;11.90;6.70;;;;;;;5.76;72.60;101038.59;21067625;28;20211;-82
2023/10/16 23:12:55;;;;;;;7.67;5.53;;;;;;;5.52;72.19;101038.31;21061973;28;20198;-81
2023/10/16 23:22:56;;;;;;;10.80;6.13;;;;;;;5.38;72.20;101037.19;21078844;28;20607;-81
2023/10/16 23:33:01;;;;;;;10.13;6.27;;;;;;;5.54;72.41;101022.13;21068631;28;20213;-84
2023/10/16 23:43:07;;;;;;;9.57;5.67;;;;;;;5.12;74.09;101019.56;21079003;28;20210;-82
2023/10/16 23:53:13;;;;;;;8.67;6.20;;;;;;;5.39;71.84;101016.53;21063352;28;20642;-81
